sensor_id;sensor_type;location;lat;lon;timestamp;P1;durP1;ratioP1;P2;durP2;ratioP2
36189;SDS011;22232;50.914;13.858;2023-11-18T00:00:15;9.20;;;6.32;;
36189;SDS011;22232;50.914;13.858;2023-11-18T00:02:44;12.55;;;6.30;;
36189;SDS011;22232;50.914;13.858;2023-11-18T00:05:13;9.80;;;6.28;;
36189;SDS011;22232;50.914;13.858;2023-11-18T00:07:41;9.70;;;6.28;;
36189;SDS011;22232;50.914;13.858;2023-11-18T00:10:09;10.85;;;6.95;;
36189;SDS011;22232;50.914;13.858;2023-11-18T00:12:38;10.52;;;6.10;;
36189;SDS011;22232;50.914;13.858;2023-11-18T00:15:09;8.85;;;5.88;;
36189;SDS011;22232;50.914;13.858;2023-11-18T00:17:39;10.52;;;7.13;;
36189;SDS011;22232;50.914;13.858;2023-11-18T00:20:07;9.80;;;6.40;;
36189;SDS011;22232;50.914;13.858;2023-11-18T00:22:41;9.25;;;5.88;;
36189;SDS011;22232;50.914;13.858;2023-11-18T00:25:09;7.57;;;5.15;;
36189;SDS011;22232;50.914;13.858;2023-11-18T00:27:38;9.00;;;5.00;;
36189;SDS011;22232;50.914;13.858;2023-11-18T00:30:06;7.85;;;5.47;;
36189;SDS011;22232;50.914;13.858;2023-11-18T00:32:35;6.40;;;4.82;;
36189;SDS011;22232;50.914;13.858;2023-11-18T00:35:03;9.95;;;5.63;;
36189;SDS011;22232;50.914;13.858;2023-11-18T00:37:34;9.45;;;5.82;;
36189;SDS011;22232;50.914;13.858;2023-11-18T00:40:02;9.55;;;6.40;;
36189;SDS011;22232;50.914;13.858;2023-11-18T00:42:30;10.55;;;6.43;;
36189;SDS011;22232;50.914;13.858;2023-11-18T00:44:57;11.75;;;7.63;;
36189;SDS011;22232;50.914;13.858;2023-11-18T00:47:26;11.73;;;7.43;;
36189;SDS011;22232;50.914;13.858;2023-11-18T00:49:54;12.65;;;7.93;;
36189;SDS011;22232;50.914;13.858;2023-11-18T00:52:21;13.20;;;7.97;;
36189;SDS011;22232;50.914;13.858;2023-11-18T00:54:49;12.93;;;8.18;;
36189;SDS011;22232;50.914;13.858;2023-11-18T00:57:17;12.50;;;8.35;;
36189;SDS011;22232;50.914;13.858;2023-11-18T00:59:44;14.90;;;8.70;;
36189;SDS011;22232;50.914;13.858;2023-11-18T01:02:12;14.27;;;8.98;;
36189;SDS011;22232;50.914;13.858;2023-11-18T01:04:40;14.80;;;9.57;;
36189;SDS011;22232;50.914;13.858;2023-11-18T01:07:08;19.63;;;10.48;;
36189;SDS011;22232;50.914;13.858;2023-11-18T01:09:36;16.17;;;9.82;;
36189;SDS011;22232;50.914;13.858;2023-11-18T01:12:06;13.80;;;9.15;;
36189;SDS011;22232;50.914;13.858;2023-11-18T01:14:37;12.88;;;8.90;;
36189;SDS011;22232;50.914;13.858;2023-11-18T01:17:06;16.40;;;9.48;;
36189;SDS011;22232;50.914;13.858;2023-11-18T01:19:36;13.70;;;9.57;;
36189;SDS011;22232;50.914;13.858;2023-11-18T01:22:03;16.45;;;9.68;;
36189;SDS011;22232;50.914;13.858;2023-11-18T01:24:35;16.65;;;9.75;;
36189;SDS011;22232;50.914;13.858;2023-11-18T01:27:03;13.10;;;8.77;;
36189;SDS011;22232;50.914;13.858;2023-11-18T01:29:31;12.63;;;8.32;;
36189;SDS011;22232;50.914;13.858;2023-11-18T01:32:00;12.38;;;8.27;;
36189;SDS011;22232;50.914;13.858;2023-11-18T01:34:28;12.10;;;8.02;;
36189;SDS011;22232;50.914;13.858;2023-11-18T01:36:55;14.00;;;8.40;;
36189;SDS011;22232;50.914;13.858;2023-11-18T01:39:24;14.32;;;8.13;;
36189;SDS011;22232;50.914;13.858;2023-11-18T01:41:55;13.75;;;7.85;;
36189;SDS011;22232;50.914;13.858;2023-11-18T01:44:22;12.75;;;7.93;;
36189;SDS011;22232;50.914;13.858;2023-11-18T01:46:51;15.48;;;8.68;;
36189;SDS011;22232;50.914;13.858;2023-11-18T01:49:19;14.05;;;8.52;;
36189;SDS011;22232;50.914;13.858;2023-11-18T01:51:47;11.20;;;7.25;;
36189;SDS011;22232;50.914;13.858;2023-11-18T01:54:19;11.35;;;7.45;;
36189;SDS011;22232;50.914;13.858;2023-11-18T01:56:48;11.52;;;7.20;;
36189;SDS011;22232;50.914;13.858;2023-11-18T01:59:16;11.98;;;6.70;;
36189;SDS011;22232;50.914;13.858;2023-11-18T02:01:48;14.00;;;7.22;;
36189;SDS011;22232;50.914;13.858;2023-11-18T02:04:19;11.93;;;7.38;;
36189;SDS011;22232;50.914;13.858;2023-11-18T02:06:48;10.90;;;7.05;;
36189;SDS011;22232;50.914;13.858;2023-11-18T02:09:20;13.05;;;7.45;;
36189;SDS011;22232;50.914;13.858;2023-11-18T02:12:02;14.48;;;8.10;;
36189;SDS011;22232;50.914;13.858;2023-11-18T02:14:32;13.52;;;7.50;;
36189;SDS011;22232;50.914;13.858;2023-11-18T02:17:02;11.95;;;7.43;;
36189;SDS011;22232;50.914;13.858;2023-11-18T02:19:30;12.13;;;7.45;;
36189;SDS011;22232;50.914;13.858;2023-11-18T02:21:58;12.35;;;7.60;;
36189;SDS011;22232;50.914;13.858;2023-11-18T02:24:31;14.05;;;7.93;;
36189;SDS011;22232;50.914;13.858;2023-11-18T02:27:00;11.90;;;7.43;;
36189;SDS011;22232;50.914;13.858;2023-11-18T02:29:29;14.25;;;7.85;;
36189;SDS011;22232;50.914;13.858;2023-11-18T02:32:22;14.00;;;8.20;;
36189;SDS011;22232;50.914;13.858;2023-11-18T02:35:10;15.68;;;7.90;;
36189;SDS011;22232;50.914;13.858;2023-11-18T02:37:59;11.60;;;7.70;;
36189;SDS011;22232;50.914;13.858;2023-11-18T02:40:29;11.75;;;7.53;;
36189;SDS011;22232;50.914;13.858;2023-11-18T02:43:03;11.95;;;7.10;;
36189;SDS011;22232;50.914;13.858;2023-11-18T02:45:32;8.48;;;5.95;;
36189;SDS011;22232;50.914;13.858;2023-11-18T02:48:03;11.13;;;6.28;;
36189;SDS011;22232;50.914;13.858;2023-11-18T02:50:34;9.60;;;6.15;;
36189;SDS011;22232;50.914;13.858;2023-11-18T02:53:05;11.40;;;5.85;;
36189;SDS011;22232;50.914;13.858;2023-11-18T02:55:33;10.10;;;6.10;;
36189;SDS011;22232;50.914;13.858;2023-11-18T02:58:01;11.63;;;6.93;;
36189;SDS011;22232;50.914;13.858;2023-11-18T03:00:33;11.73;;;6.78;;
36189;SDS011;22232;50.914;13.858;2023-11-18T03:03:01;9.95;;;5.85;;
36189;SDS011;22232;50.914;13.858;2023-11-18T03:05:30;11.00;;;6.68;;
36189;SDS011;22232;50.914;13.858;2023-11-18T03:07:58;10.38;;;6.55;;
36189;SDS011;22232;50.914;13.858;2023-11-18T03:10:26;10.38;;;6.70;;
36189;SDS011;22232;50.914;13.858;2023-11-18T03:12:54;9.55;;;5.97;;
36189;SDS011;22232;50.914;13.858;2023-11-18T03:15:21;9.52;;;5.60;;
36189;SDS011;22232;50.914;13.858;2023-11-18T03:17:51;8.88;;;5.88;;
36189;SDS011;22232;50.914;13.858;2023-11-18T03:20:20;8.40;;;5.57;;
36189;SDS011;22232;50.914;13.858;2023-11-18T03:22:50;9.25;;;5.70;;
36189;SDS011;22232;50.914;13.858;2023-11-18T03:25:20;11.27;;;5.88;;
36189;SDS011;22232;50.914;13.858;2023-11-18T03:27:51;9.20;;;5.57;;
36189;SDS011;22232;50.914;13.858;2023-11-18T03:30:21;10.73;;;5.80;;
36189;SDS011;22232;50.914;13.858;2023-11-18T03:32:49;10.15;;;5.35;;
36189;SDS011;22232;50.914;13.858;2023-11-18T03:35:16;10.77;;;5.95;;
36189;SDS011;22232;50.914;13.858;2023-11-18T03:37:44;10.40;;;6.25;;
36189;SDS011;22232;50.914;13.858;2023-11-18T03:40:13;10.63;;;6.25;;
36189;SDS011;22232;50.914;13.858;2023-11-18T03:42:42;11.38;;;5.88;;
36189;SDS011;22232;50.914;13.858;2023-11-18T03:45:09;9.82;;;6.32;;
36189;SDS011;22232;50.914;13.858;2023-11-18T03:47:37;11.27;;;6.70;;
36189;SDS011;22232;50.914;13.858;2023-11-18T03:50:06;10.48;;;6.15;;
36189;SDS011;22232;50.914;13.858;2023-11-18T03:52:36;11.38;;;6.57;;
36189;SDS011;22232;50.914;13.858;2023-11-18T03:55:05;12.15;;;6.40;;
36189;SDS011;22232;50.914;13.858;2023-11-18T03:57:33;11.45;;;6.53;;
36189;SDS011;22232;50.914;13.858;2023-11-18T04:00:01;11.23;;;6.45;;
36189;SDS011;22232;50.914;13.858;2023-11-18T04:02:36;11.15;;;6.25;;
36189;SDS011;22232;50.914;13.858;2023-11-18T04:05:05;11.20;;;6.80;;
36189;SDS011;22232;50.914;13.858;2023-11-18T04:07:33;13.60;;;7.38;;
36189;SDS011;22232;50.914;13.858;2023-11-18T04:10:01;12.40;;;6.53;;
36189;SDS011;22232;50.914;13.858;2023-11-18T04:12:29;12.13;;;6.93;;
36189;SDS011;22232;50.914;13.858;2023-11-18T04:14:57;11.50;;;6.85;;
36189;SDS011;22232;50.914;13.858;2023-11-18T04:17:25;13.00;;;7.13;;
36189;SDS011;22232;50.914;13.858;2023-11-18T04:19:55;13.40;;;6.97;;
36189;SDS011;22232;50.914;13.858;2023-11-18T04:22:23;13.68;;;7.28;;
36189;SDS011;22232;50.914;13.858;2023-11-18T04:24:51;10.75;;;6.47;;
36189;SDS011;22232;50.914;13.858;2023-11-18T04:27:18;13.55;;;6.55;;
36189;SDS011;22232;50.914;13.858;2023-11-18T04:29:46;10.68;;;6.28;;
36189;SDS011;22232;50.914;13.858;2023-11-18T04:32:13;12.75;;;6.88;;
36189;SDS011;22232;50.914;13.858;2023-11-18T04:34:41;13.25;;;6.60;;
36189;SDS011;22232;50.914;13.858;2023-11-18T04:37:09;13.63;;;7.10;;
36189;SDS011;22232;50.914;13.858;2023-11-18T04:39:37;12.55;;;6.65;;
36189;SDS011;22232;50.914;13.858;2023-11-18T04:42:05;11.13;;;6.38;;
36189;SDS011;22232;50.914;13.858;2023-11-18T04:44:33;12.38;;;6.80;;
36189;SDS011;22232;50.914;13.858;2023-11-18T04:47:00;14.05;;;6.70;;
36189;SDS011;22232;50.914;13.858;2023-11-18T04:49:29;13.38;;;6.35;;
36189;SDS011;22232;50.914;13.858;2023-11-18T04:51:57;13.07;;;6.72;;
36189;SDS011;22232;50.914;13.858;2023-11-18T04:54:26;13.70;;;7.18;;
36189;SDS011;22232;50.914;13.858;2023-11-18T04:56:53;11.73;;;6.30;;
36189;SDS011;22232;50.914;13.858;2023-11-18T04:59:21;11.85;;;6.45;;
36189;SDS011;22232;50.914;13.858;2023-11-18T05:01:49;12.93;;;6.65;;
36189;SDS011;22232;50.914;13.858;2023-11-18T05:04:16;11.98;;;6.50;;
36189;SDS011;22232;50.914;13.858;2023-11-18T05:06:44;12.38;;;6.32;;
36189;SDS011;22232;50.914;13.858;2023-11-18T05:09:12;14.05;;;7.30;;
36189;SDS011;22232;50.914;13.858;2023-11-18T05:11:39;12.20;;;6.80;;
36189;SDS011;22232;50.914;13.858;2023-11-18T05:14:07;11.43;;;6.53;;
36189;SDS011;22232;50.914;13.858;2023-11-18T05:16:34;14.00;;;6.70;;
36189;SDS011;22232;50.914;13.858;2023-11-18T05:19:02;11.70;;;6.18;;
36189;SDS011;22232;50.914;13.858;2023-11-18T05:21:30;11.18;;;5.97;;
36189;SDS011;22232;50.914;13.858;2023-11-18T05:23:57;12.25;;;6.30;;
36189;SDS011;22232;50.914;13.858;2023-11-18T05:26:25;11.32;;;6.32;;
36189;SDS011;22232;50.914;13.858;2023-11-18T05:28:54;12.13;;;7.07;;
36189;SDS011;22232;50.914;13.858;2023-11-18T05:31:21;9.65;;;6.22;;
36189;SDS011;22232;50.914;13.858;2023-11-18T05:33:49;12.00;;;6.70;;
36189;SDS011;22232;50.914;13.858;2023-11-18T05:36:19;13.07;;;6.88;;
36189;SDS011;22232;50.914;13.858;2023-11-18T05:38:54;12.32;;;6.93;;
36189;SDS011;22232;50.914;13.858;2023-11-18T05:41:22;13.32;;;7.10;;
36189;SDS011;22232;50.914;13.858;2023-11-18T05:43:55;14.40;;;6.93;;
36189;SDS011;22232;50.914;13.858;2023-11-18T05:46:25;14.73;;;7.82;;
36189;SDS011;22232;50.914;13.858;2023-11-18T05:49:01;11.85;;;7.10;;
36189;SDS011;22232;50.914;13.858;2023-11-18T05:51:33;13.15;;;7.00;;
36189;SDS011;22232;50.914;13.858;2023-11-18T05:54:00;12.05;;;6.93;;
36189;SDS011;22232;50.914;13.858;2023-11-18T05:56:28;13.27;;;7.15;;
36189;SDS011;22232;50.914;13.858;2023-11-18T05:58:56;13.13;;;6.63;;
36189;SDS011;22232;50.914;13.858;2023-11-18T06:01:25;14.60;;;7.72;;
36189;SDS011;22232;50.914;13.858;2023-11-18T06:03:55;11.27;;;6.88;;
36189;SDS011;22232;50.914;13.858;2023-11-18T06:06:24;12.70;;;7.28;;
36189;SDS011;22232;50.914;13.858;2023-11-18T06:08:52;12.65;;;7.10;;
36189;SDS011;22232;50.914;13.858;2023-11-18T06:11:20;12.30;;;7.20;;
36189;SDS011;22232;50.914;13.858;2023-11-18T06:13:51;11.98;;;7.10;;
36189;SDS011;22232;50.914;13.858;2023-11-18T06:16:23;13.63;;;7.35;;
36189;SDS011;22232;50.914;13.858;2023-11-18T06:18:57;11.00;;;7.07;;
36189;SDS011;22232;50.914;13.858;2023-11-18T06:21:26;12.07;;;7.28;;
36189;SDS011;22232;50.914;13.858;2023-11-18T06:23:58;11.20;;;7.00;;
36189;SDS011;22232;50.914;13.858;2023-11-18T06:26:26;10.95;;;6.68;;
36189;SDS011;22232;50.914;13.858;2023-11-18T06:28:55;14.02;;;6.80;;
36189;SDS011;22232;50.914;13.858;2023-11-18T06:31:23;11.80;;;7.05;;
36189;SDS011;22232;50.914;13.858;2023-11-18T06:33:51;12.93;;;7.20;;
36189;SDS011;22232;50.914;13.858;2023-11-18T06:36:20;14.30;;;8.02;;
36189;SDS011;22232;50.914;13.858;2023-11-18T06:38:49;16.20;;;7.88;;
36189;SDS011;22232;50.914;13.858;2023-11-18T06:41:21;15.18;;;8.57;;
36189;SDS011;22232;50.914;13.858;2023-11-18T06:44:04;16.33;;;8.30;;
36189;SDS011;22232;50.914;13.858;2023-11-18T06:46:40;13.13;;;7.80;;
36189;SDS011;22232;50.914;13.858;2023-11-18T06:49:08;15.60;;;8.40;;
36189;SDS011;22232;50.914;13.858;2023-11-18T06:51:38;15.70;;;8.82;;
36189;SDS011;22232;50.914;13.858;2023-11-18T06:54:06;14.95;;;8.55;;
36189;SDS011;22232;50.914;13.858;2023-11-18T06:56:42;14.02;;;8.52;;
36189;SDS011;22232;50.914;13.858;2023-11-18T06:59:12;17.10;;;9.50;;
36189;SDS011;22232;50.914;13.858;2023-11-18T07:01:41;14.00;;;8.60;;
36189;SDS011;22232;50.914;13.858;2023-11-18T07:04:13;14.85;;;8.85;;
36189;SDS011;22232;50.914;13.858;2023-11-18T07:06:42;16.38;;;9.50;;
36189;SDS011;22232;50.914;13.858;2023-11-18T07:09:11;14.70;;;8.80;;
36189;SDS011;22232;50.914;13.858;2023-11-18T07:11:48;14.40;;;8.75;;
36189;SDS011;22232;50.914;13.858;2023-11-18T07:14:15;16.40;;;9.02;;
36189;SDS011;22232;50.914;13.858;2023-11-18T07:16:44;17.08;;;8.40;;
36189;SDS011;22232;50.914;13.858;2023-11-18T07:19:12;14.20;;;8.05;;
36189;SDS011;22232;50.914;13.858;2023-11-18T07:21:49;14.77;;;8.07;;
36189;SDS011;22232;50.914;13.858;2023-11-18T07:24:17;16.92;;;9.13;;
36189;SDS011;22232;50.914;13.858;2023-11-18T07:26:45;12.75;;;7.80;;
36189;SDS011;22232;50.914;13.858;2023-11-18T07:29:13;15.07;;;8.32;;
36189;SDS011;22232;50.914;13.858;2023-11-18T07:31:40;15.20;;;8.98;;
36189;SDS011;22232;50.914;13.858;2023-11-18T07:34:10;14.90;;;8.60;;
36189;SDS011;22232;50.914;13.858;2023-11-18T07:36:38;14.80;;;8.82;;
36189;SDS011;22232;50.914;13.858;2023-11-18T07:39:05;15.93;;;8.70;;
36189;SDS011;22232;50.914;13.858;2023-11-18T07:41:43;15.77;;;8.77;;
36189;SDS011;22232;50.914;13.858;2023-11-18T07:44:11;16.63;;;9.05;;
36189;SDS011;22232;50.914;13.858;2023-11-18T07:46:40;14.55;;;8.60;;
36189;SDS011;22232;50.914;13.858;2023-11-18T07:49:10;15.43;;;8.82;;
36189;SDS011;22232;50.914;13.858;2023-11-18T07:51:38;12.57;;;7.53;;
36189;SDS011;22232;50.914;13.858;2023-11-18T07:54:07;12.85;;;7.88;;
36189;SDS011;22232;50.914;13.858;2023-11-18T07:56:37;15.45;;;8.02;;
36189;SDS011;22232;50.914;13.858;2023-11-18T07:59:05;14.20;;;8.10;;
36189;SDS011;22232;50.914;13.858;2023-11-18T08:01:35;15.57;;;8.98;;
36189;SDS011;22232;50.914;13.858;2023-11-18T08:04:03;14.48;;;8.60;;
36189;SDS011;22232;50.914;13.858;2023-11-18T08:06:34;15.50;;;8.68;;
36189;SDS011;22232;50.914;13.858;2023-11-18T08:09:01;16.17;;;9.50;;
36189;SDS011;22232;50.914;13.858;2023-11-18T08:11:29;14.35;;;8.20;;
36189;SDS011;22232;50.914;13.858;2023-11-18T08:13:57;13.15;;;8.20;;
36189;SDS011;22232;50.914;13.858;2023-11-18T08:16:26;14.13;;;8.75;;
36189;SDS011;22232;50.914;13.858;2023-11-18T08:18:55;15.55;;;8.20;;
36189;SDS011;22232;50.914;13.858;2023-11-18T08:21:23;14.57;;;8.73;;
36189;SDS011;22232;50.914;13.858;2023-11-18T08:23:50;18.50;;;10.07;;
36189;SDS011;22232;50.914;13.858;2023-11-18T08:26:20;18.38;;;9.32;;
36189;SDS011;22232;50.914;13.858;2023-11-18T08:28:47;20.10;;;9.85;;
36189;SDS011;22232;50.914;13.858;2023-11-18T08:31:15;15.40;;;9.40;;
36189;SDS011;22232;50.914;13.858;2023-11-18T08:33:43;13.88;;;9.30;;
36189;SDS011;22232;50.914;13.858;2023-11-18T08:36:13;15.10;;;8.70;;
36189;SDS011;22232;50.914;13.858;2023-11-18T08:38:41;16.05;;;8.82;;
36189;SDS011;22232;50.914;13.858;2023-11-18T08:41:11;15.85;;;8.90;;
36189;SDS011;22232;50.914;13.858;2023-11-18T08:43:39;12.93;;;8.05;;
36189;SDS011;22232;50.914;13.858;2023-11-18T08:46:10;12.10;;;7.75;;
36189;SDS011;22232;50.914;13.858;2023-11-18T08:48:39;11.57;;;7.75;;
36189;SDS011;22232;50.914;13.858;2023-11-18T08:51:07;10.77;;;6.95;;
36189;SDS011;22232;50.914;13.858;2023-11-18T08:53:38;12.90;;;7.50;;
36189;SDS011;22232;50.914;13.858;2023-11-18T08:56:08;11.20;;;6.68;;
36189;SDS011;22232;50.914;13.858;2023-11-18T08:58:43;10.57;;;6.45;;
36189;SDS011;22232;50.914;13.858;2023-11-18T09:01:12;13.65;;;7.43;;
36189;SDS011;22232;50.914;13.858;2023-11-18T09:03:43;10.93;;;6.72;;
36189;SDS011;22232;50.914;13.858;2023-11-18T09:06:15;10.23;;;6.60;;
36189;SDS011;22232;50.914;13.858;2023-11-18T09:08:53;9.85;;;6.63;;
36189;SDS011;22232;50.914;13.858;2023-11-18T09:11:22;10.63;;;6.32;;
36189;SDS011;22232;50.914;13.858;2023-11-18T09:13:51;8.82;;;6.03;;
36189;SDS011;22232;50.914;13.858;2023-11-18T09:16:24;10.73;;;6.05;;
36189;SDS011;22232;50.914;13.858;2023-11-18T09:18:57;10.65;;;6.43;;
36189;SDS011;22232;50.914;13.858;2023-11-18T09:21:26;9.55;;;6.13;;
36189;SDS011;22232;50.914;13.858;2023-11-18T09:23:57;9.93;;;5.85;;
36189;SDS011;22232;50.914;13.858;2023-11-18T09:26:24;10.10;;;6.03;;
36189;SDS011;22232;50.914;13.858;2023-11-18T09:28:57;9.18;;;5.75;;
36189;SDS011;22232;50.914;13.858;2023-11-18T09:31:25;11.27;;;6.22;;
36189;SDS011;22232;50.914;13.858;2023-11-18T09:33:54;9.52;;;6.20;;
36189;SDS011;22232;50.914;13.858;2023-11-18T09:36:25;12.18;;;5.82;;
36189;SDS011;22232;50.914;13.858;2023-11-18T09:38:56;10.60;;;6.40;;
36189;SDS011;22232;50.914;13.858;2023-11-18T09:41:24;11.70;;;6.70;;
36189;SDS011;22232;50.914;13.858;2023-11-18T09:43:55;12.13;;;6.63;;
36189;SDS011;22232;50.914;13.858;2023-11-18T09:51:55;8.50;;;5.40;;
36189;SDS011;22232;50.914;13.858;2023-11-18T09:57:23;7.97;;;5.07;;
36189;SDS011;22232;50.914;13.858;2023-11-18T10:00:00;9.82;;;5.40;;
36189;SDS011;22232;50.914;13.858;2023-11-18T10:02:54;9.15;;;5.03;;
36189;SDS011;22232;50.914;13.858;2023-11-18T10:05:28;9.15;;;4.78;;
36189;SDS011;22232;50.914;13.858;2023-11-18T10:07:57;8.48;;;5.07;;
36189;SDS011;22232;50.914;13.858;2023-11-18T10:10:26;9.48;;;5.43;;
36189;SDS011;22232;50.914;13.858;2023-11-18T10:13:04;9.70;;;5.38;;
36189;SDS011;22232;50.914;13.858;2023-11-18T10:15:46;11.77;;;5.15;;
36189;SDS011;22232;50.914;13.858;2023-11-18T10:18:18;7.88;;;4.93;;
36189;SDS011;22232;50.914;13.858;2023-11-18T10:20:51;7.90;;;4.85;;
36189;SDS011;22232;50.914;13.858;2023-11-18T10:23:21;8.38;;;4.75;;
36189;SDS011;22232;50.914;13.858;2023-11-18T10:25:56;7.25;;;4.00;;
36189;SDS011;22232;50.914;13.858;2023-11-18T10:28:29;8.95;;;4.38;;
36189;SDS011;22232;50.914;13.858;2023-11-18T10:31:06;6.55;;;3.97;;
36189;SDS011;22232;50.914;13.858;2023-11-18T10:33:39;7.22;;;3.47;;
36189;SDS011;22232;50.914;13.858;2023-11-18T10:36:19;3.70;;;2.57;;
36189;SDS011;22232;50.914;13.858;2023-11-18T10:38:54;3.00;;;2.40;;
36189;SDS011;22232;50.914;13.858;2023-11-18T10:41:27;3.67;;;2.33;;
36189;SDS011;22232;50.914;13.858;2023-11-18T10:44:07;2.67;;;1.92;;
36189;SDS011;22232;50.914;13.858;2023-11-18T10:46:36;2.45;;;1.92;;
36189;SDS011;22232;50.914;13.858;2023-11-18T10:49:04;1.27;;;1.17;;
36189;SDS011;22232;50.914;13.858;2023-11-18T10:51:37;1.83;;;1.10;;
36189;SDS011;22232;50.914;13.858;2023-11-18T10:54:08;1.58;;;1.10;;
36189;SDS011;22232;50.914;13.858;2023-11-18T10:56:50;2.20;;;1.00;;
36189;SDS011;22232;50.914;13.858;2023-11-18T10:59:21;1.00;;;0.90;;
36189;SDS011;22232;50.914;13.858;2023-11-18T11:01:49;1.10;;;1.00;;
36189;SDS011;22232;50.914;13.858;2023-11-18T11:04:17;1.13;;;0.80;;
36189;SDS011;22232;50.914;13.858;2023-11-18T11:06:48;0.80;;;0.77;;
36189;SDS011;22232;50.914;13.858;2023-11-18T11:09:20;1.48;;;0.88;;
36189;SDS011;22232;50.914;13.858;2023-11-18T11:11:56;2.25;;;1.10;;
36189;SDS011;22232;50.914;13.858;2023-11-18T11:14:34;1.77;;;0.93;;
36189;SDS011;22232;50.914;13.858;2023-11-18T11:17:12;1.58;;;0.98;;
36189;SDS011;22232;50.914;13.858;2023-11-18T11:19:50;2.10;;;1.30;;
36189;SDS011;22232;50.914;13.858;2023-11-18T11:22:25;1.73;;;1.00;;
36189;SDS011;22232;50.914;13.858;2023-11-18T11:25:09;1.35;;;1.20;;
36189;SDS011;22232;50.914;13.858;2023-11-18T11:27:51;1.38;;;1.20;;
36189;SDS011;22232;50.914;13.858;2023-11-18T11:30:29;2.30;;;1.30;;
36189;SDS011;22232;50.914;13.858;2023-11-18T11:33:20;1.48;;;1.38;;
36189;SDS011;22232;50.914;13.858;2023-11-18T11:36:11;1.75;;;1.40;;
36189;SDS011;22232;50.914;13.858;2023-11-18T11:38:43;1.60;;;1.50;;
36189;SDS011;22232;50.914;13.858;2023-11-18T11:41:14;2.90;;;1.45;;
36189;SDS011;22232;50.914;13.858;2023-11-18T11:43:52;1.98;;;1.52;;
36189;SDS011;22232;50.914;13.858;2023-11-18T11:46:25;1.27;;;1.10;;
36189;SDS011;22232;50.914;13.858;2023-11-18T11:49:01;2.97;;;1.33;;
36189;SDS011;22232;50.914;13.858;2023-11-18T11:51:41;1.50;;;1.40;;
36189;SDS011;22232;50.914;13.858;2023-11-18T11:54:17;3.00;;;1.65;;
36189;SDS011;22232;50.914;13.858;2023-11-18T11:56:48;3.97;;;1.83;;
36189;SDS011;22232;50.914;13.858;2023-11-18T12:02:14;2.58;;;1.60;;
36189;SDS011;22232;50.914;13.858;2023-11-18T12:04:44;2.38;;;1.70;;
36189;SDS011;22232;50.914;13.858;2023-11-18T12:07:12;4.13;;;2.10;;
36189;SDS011;22232;50.914;13.858;2023-11-18T12:09:47;1.70;;;1.60;;
36189;SDS011;22232;50.914;13.858;2023-11-18T12:12:22;3.33;;;1.88;;
36189;SDS011;22232;50.914;13.858;2023-11-18T12:14:55;3.08;;;2.45;;
36189;SDS011;22232;50.914;13.858;2023-11-18T12:17:24;3.47;;;2.20;;
36189;SDS011;22232;50.914;13.858;2023-11-18T12:19:59;3.83;;;2.38;;
36189;SDS011;22232;50.914;13.858;2023-11-18T12:25:42;4.15;;;2.60;;
36189;SDS011;22232;50.914;13.858;2023-11-18T12:28:15;3.13;;;2.40;;
36189;SDS011;22232;50.914;13.858;2023-11-18T12:30:44;4.72;;;2.38;;
36189;SDS011;22232;50.914;13.858;2023-11-18T12:33:25;3.63;;;3.28;;
36189;SDS011;22232;50.914;13.858;2023-11-18T12:42:05;3.45;;;2.97;;
36189;SDS011;22232;50.914;13.858;2023-11-18T12:44:37;8.07;;;3.95;;
36189;SDS011;22232;50.914;13.858;2023-11-18T12:47:20;3.72;;;2.53;;
36189;SDS011;22232;50.914;13.858;2023-11-18T12:49:55;4.22;;;2.67;;
36189;SDS011;22232;50.914;13.858;2023-11-18T12:52:23;3.78;;;2.80;;
36189;SDS011;22232;50.914;13.858;2023-11-18T12:54:53;3.60;;;3.20;;
36189;SDS011;22232;50.914;13.858;2023-11-18T12:57:26;4.65;;;3.50;;
36189;SDS011;22232;50.914;13.858;2023-11-18T12:59:59;5.60;;;3.25;;
36189;SDS011;22232;50.914;13.858;2023-11-18T13:02:28;4.82;;;3.47;;
36189;SDS011;22232;50.914;13.858;2023-11-18T13:04:56;4.68;;;3.05;;
36189;SDS011;22232;50.914;13.858;2023-11-18T13:07:24;4.72;;;3.00;;
36189;SDS011;22232;50.914;13.858;2023-11-18T13:09:52;6.00;;;3.30;;
36189;SDS011;22232;50.914;13.858;2023-11-18T13:12:21;5.53;;;3.10;;
36189;SDS011;22232;50.914;13.858;2023-11-18T13:14:51;4.63;;;3.30;;
36189;SDS011;22232;50.914;13.858;2023-11-18T13:17:18;3.95;;;3.35;;
36189;SDS011;22232;50.914;13.858;2023-11-18T13:19:46;5.07;;;3.45;;
36189;SDS011;22232;50.914;13.858;2023-11-18T13:22:15;10.38;;;5.82;;
36189;SDS011;22232;50.914;13.858;2023-11-18T13:24:46;7.50;;;4.22;;
36189;SDS011;22232;50.914;13.858;2023-11-18T13:27:14;5.50;;;3.80;;
36189;SDS011;22232;50.914;13.858;2023-11-18T13:29:44;4.78;;;3.17;;
36189;SDS011;22232;50.914;13.858;2023-11-18T13:32:16;7.07;;;3.90;;
36189;SDS011;22232;50.914;13.858;2023-11-18T13:34:45;5.32;;;3.25;;
36189;SDS011;22232;50.914;13.858;2023-11-18T13:37:13;3.70;;;3.00;;
36189;SDS011;22232;50.914;13.858;2023-11-18T13:39:44;4.82;;;2.78;;
36189;SDS011;22232;50.914;13.858;2023-11-18T13:42:23;2.90;;;2.60;;
36189;SDS011;22232;50.914;13.858;2023-11-18T13:45:16;6.20;;;4.35;;
36189;SDS011;22232;50.914;13.858;2023-11-18T13:48:02;8.13;;;3.67;;
36189;SDS011;22232;50.914;13.858;2023-11-18T13:50:30;12.70;;;5.45;;
36189;SDS011;22232;50.914;13.858;2023-11-18T13:52:57;5.60;;;4.47;;
36189;SDS011;22232;50.914;13.858;2023-11-18T13:55:25;5.75;;;3.97;;
36189;SDS011;22232;50.914;13.858;2023-11-18T13:57:55;4.82;;;3.55;;
36189;SDS011;22232;50.914;13.858;2023-11-18T14:00:25;4.78;;;3.67;;
36189;SDS011;22232;50.914;13.858;2023-11-18T14:02:58;4.70;;;3.40;;
36189;SDS011;22232;50.914;13.858;2023-11-18T14:05:27;5.80;;;3.55;;
36189;SDS011;22232;50.914;13.858;2023-11-18T14:07:57;3.67;;;3.08;;
36189;SDS011;22232;50.914;13.858;2023-11-18T14:10:35;5.57;;;3.38;;
36189;SDS011;22232;50.914;13.858;2023-11-18T14:13:05;4.05;;;2.80;;
36189;SDS011;22232;50.914;13.858;2023-11-18T14:15:36;3.42;;;2.67;;
36189;SDS011;22232;50.914;13.858;2023-11-18T14:18:04;3.03;;;2.67;;
36189;SDS011;22232;50.914;13.858;2023-11-18T14:20:35;3.88;;;2.70;;
36189;SDS011;22232;50.914;13.858;2023-11-18T14:23:02;4.97;;;3.00;;
36189;SDS011;22232;50.914;13.858;2023-11-18T14:25:31;3.25;;;2.90;;
36189;SDS011;22232;50.914;13.858;2023-11-18T14:27:59;2.55;;;2.25;;
36189;SDS011;22232;50.914;13.858;2023-11-18T14:30:27;3.42;;;2.72;;
36189;SDS011;22232;50.914;13.858;2023-11-18T14:32:55;5.05;;;2.70;;
36189;SDS011;22232;50.914;13.858;2023-11-18T14:35:23;3.40;;;2.80;;
36189;SDS011;22232;50.914;13.858;2023-11-18T14:37:54;3.80;;;3.17;;
36189;SDS011;22232;50.914;13.858;2023-11-18T14:40:23;5.63;;;2.47;;
36189;SDS011;22232;50.914;13.858;2023-11-18T14:42:55;5.93;;;3.15;;
36189;SDS011;22232;50.914;13.858;2023-11-18T14:45:22;3.70;;;2.83;;
36189;SDS011;22232;50.914;13.858;2023-11-18T14:47:50;4.80;;;3.22;;
36189;SDS011;22232;50.914;13.858;2023-11-18T14:50:20;4.75;;;2.90;;
36189;SDS011;22232;50.914;13.858;2023-11-18T14:52:48;4.55;;;3.25;;
36189;SDS011;22232;50.914;13.858;2023-11-18T14:55:19;4.00;;;3.30;;
36189;SDS011;22232;50.914;13.858;2023-11-18T14:57:46;5.32;;;3.53;;
36189;SDS011;22232;50.914;13.858;2023-11-18T15:00:14;5.47;;;3.70;;
36189;SDS011;22232;50.914;13.858;2023-11-18T15:02:46;3.80;;;3.20;;
36189;SDS011;22232;50.914;13.858;2023-11-18T15:05:15;5.25;;;3.78;;